Terminal Aerodrome Forecast
Issued by NWS

Home | Current Version | Previous Version | Text Only | Print | Product List | Glossary On
Versions: 1 2 3 4 5 6 7 8 9 10 11 12 13 14 15 16 17 18 19 20 21 22
000
FTUS46 KLOX 230500
TAFSBA
TAF
KSBA 230538Z 2306/2406 VRB03KT P6SM OVC009
     FM231000 VRB03KT 3SM BR OVC003
     FM231400 VRB03KT 1SM BR OVC002
     FM231600 16006KT P6SM BKN012
     FM232000 23008KT P6SM SCT015
     FM240500 VRB05KT P6SM BKN008=

USA.gov is the U.S. government's official web portal to all federal, state and local government web resources and services.